sensor_id;sensor_type;location;lat;lon;timestamp;pressure;altitude;pressure_sealevel;temperature;humidity
17950;BME280;9100;48.700;9.316;2022-07-10T00:00:22;98394;;;20.76;100
17950;BME280;9100;48.700;9.316;2022-07-10T00:01:22;98388.59999999999;;;20.78;100
17950;BME280;9100;48.700;9.316;2022-07-10T00:02:22;98391.4;;;20.76;100
17950;BME280;9100;48.700;9.316;2022-07-10T00:03:22;98393.8;;;20.78;100
17950;BME280;9100;48.700;9.316;2022-07-10T00:03:53;98387;;;20.77;100
17950;BME280;9100;48.700;9.316;2022-07-10T00:04:22;98393;;;20.77;100
17950;BME280;9100;48.700;9.316;2022-07-10T00:05:23;98395.4;;;20.79;100
17950;BME280;9100;48.700;9.316;2022-07-10T00:06:22;98399;;;20.78;100
17950;BME280;9100;48.700;9.316;2022-07-10T00:07:22;98387;;;20.77;100
17950;BME280;9100;48.700;9.316;2022-07-10T00:08:22;98394.8;;;20.77;100
17950;BME280;9100;48.700;9.316;2022-07-10T00:08:53;98390.59999999999;;;20.76;100
17950;BME280;9100;48.700;9.316;2022-07-10T00:09:22;98402.59999999999;;;20.77;100
17950;BME280;9100;48.700;9.316;2022-07-10T00:10:23;98393.2;;;20.76;100
17950;BME280;9100;48.700;9.316;2022-07-10T00:11:22;98383.8;;;20.75;100
17950;BME280;9100;48.700;9.316;2022-07-10T00:12:22;98388.2;;;20.74;100
17950;BME280;9100;48.700;9.316;2022-07-10T00:13:22;98393.4;;;20.74;100
17950;BME280;9100;48.700;9.316;2022-07-10T00:13:53;98392.6;;;20.74;100
17950;BME280;9100;48.700;9.316;2022-07-10T00:14:22;98390;;;20.74;100
17950;BME280;9100;48.700;9.316;2022-07-10T00:15:22;98397.79999999999;;;20.74;100
17950;BME280;9100;48.700;9.316;2022-07-10T00:16:22;98387.90000000001;;;20.71;100
17950;BME280;9100;48.700;9.316;2022-07-10T00:17:22;98399.3;;;20.7;100
17950;BME280;9100;48.700;9.316;2022-07-10T00:18:22;98385.7;;;20.68;100
17950;BME280;9100;48.700;9.316;2022-07-10T00:18:53;98388.3;;;20.68;100
17950;BME280;9100;48.700;9.316;2022-07-10T00:19:22;98392.5;;;20.69;100
17950;BME280;9100;48.700;9.316;2022-07-10T00:20:22;98393.5;;;20.68;100
17950;BME280;9100;48.700;9.316;2022-07-10T00:21:22;98336.90000000001;;;20.35;100
17950;BME280;9100;48.700;9.316;2022-07-10T00:22:22;98388.8;;;20.65;100
17950;BME280;9100;48.700;9.316;2022-07-10T00:23:22;98388;;;20.64;100
17950;BME280;9100;48.700;9.316;2022-07-10T00:23:53;98387.2;;;20.64;100
17950;BME280;9100;48.700;9.316;2022-07-10T00:24:22;98382.6;;;20.66;100
17950;BME280;9100;48.700;9.316;2022-07-10T00:25:22;98383.6;;;20.65;100
17950;BME280;9100;48.700;9.316;2022-07-10T00:26:22;98385.2;;;20.66;100
17950;BME280;9100;48.700;9.316;2022-07-10T00:27:22;98384.6;;;20.64;100
17950;BME280;9100;48.700;9.316;2022-07-10T00:28:22;98385.6;;;20.63;100
17950;BME280;9100;48.700;9.316;2022-07-10T00:28:53;98375.2;;;20.63;100
17950;BME280;9100;48.700;9.316;2022-07-10T00:29:22;98375.2;;;20.63;100
17950;BME280;9100;48.700;9.316;2022-07-10T00:30:22;98371.6;;;20.64;100
17950;BME280;9100;48.700;9.316;2022-07-10T00:31:22;98369.2;;;20.62;100
17950;BME280;9100;48.700;9.316;2022-07-10T00:32:23;98371.1;;;20.62;100
17950;BME280;9100;48.700;9.316;2022-07-10T00:33:23;98372.1;;;20.61;100
17950;BME280;9100;48.700;9.316;2022-07-10T00:33:53;98375.7;;;20.6;100
17950;BME280;9100;48.700;9.316;2022-07-10T00:34:22;98370.5;;;20.6;100
17950;BME280;9100;48.700;9.316;2022-07-10T00:35:22;98374.90000000001;;;20.59;100
17950;BME280;9100;48.700;9.316;2022-07-10T00:36:22;98375.3;;;20.56;100
17950;BME280;9100;48.700;9.316;2022-07-10T00:37:22;98378.09999999999;;;20.55;100
17950;BME280;9100;48.700;9.316;2022-07-10T00:38:23;98388;;;20.53;100
17950;BME280;9100;48.700;9.316;2022-07-10T00:38:53;98386.40000000001;;;20.52;100
17950;BME280;9100;48.700;9.316;2022-07-10T00:39:22;98387.2;;;20.52;100
17950;BME280;9100;48.700;9.316;2022-07-10T00:40:22;98389.8;;;20.52;100
17950;BME280;9100;48.700;9.316;2022-07-10T00:41:23;98382.2;;;20.51;100
17950;BME280;9100;48.700;9.316;2022-07-10T00:42:22;98383.3;;;20.5;100
17950;BME280;9100;48.700;9.316;2022-07-10T00:43:23;98386.90000000001;;;20.49;100
17950;BME280;9100;48.700;9.316;2022-07-10T00:43:53;98384.3;;;20.49;100
17950;BME280;9100;48.700;9.316;2022-07-10T00:44:22;98381.7;;;20.49;100
17950;BME280;9100;48.700;9.316;2022-07-10T00:45:22;98383.5;;;20.48;100
17950;BME280;9100;48.700;9.316;2022-07-10T00:46:23;98380.3;;;20.46;100
17950;BME280;9100;48.700;9.316;2022-07-10T00:47:23;98375.3;;;20.45;100
17950;BME280;9100;48.700;9.316;2022-07-10T00:48:22;98380;;;20.43;100
17950;BME280;9100;48.700;9.316;2022-07-10T00:48:53;98375.8;;;20.42;100
17950;BME280;9100;48.700;9.316;2022-07-10T00:49:23;98375.8;;;20.42;100
17950;BME280;9100;48.700;9.316;2022-07-10T00:50:22;98383.6;;;20.42;100
17950;BME280;9100;48.700;9.316;2022-07-10T00:51:23;98382;;;20.41;100
17950;BME280;9100;48.700;9.316;2022-07-10T00:52:22;98389.20000000001;;;20.39;100
17950;BME280;9100;48.700;9.316;2022-07-10T00:53:22;98377.20000000001;;;20.38;100
17950;BME280;9100;48.700;9.316;2022-07-10T00:53:53;98382.4;;;20.38;100
17950;BME280;9100;48.700;9.316;2022-07-10T00:54:22;98383;;;20.4;100
17950;BME280;9100;48.700;9.316;2022-07-10T00:55:22;98384;;;20.39;100
17950;BME280;9100;48.700;9.316;2022-07-10T00:56:23;98385.6;;;20.4;100
17950;BME280;9100;48.700;9.316;2022-07-10T00:57:22;98378.2;;;20.37;100
17950;BME280;9100;48.700;9.316;2022-07-10T00:58:22;98328.59999999999;;;20.03;100
17950;BME280;9100;48.700;9.316;2022-07-10T00:58:53;98377.70000000001;;;20.35;100
17950;BME280;9100;48.700;9.316;2022-07-10T00:59:22;98374.1;;;20.36;100
17950;BME280;9100;48.700;9.316;2022-07-10T01:00:23;98371.5;;;20.36;100
17950;BME280;9100;48.700;9.316;2022-07-10T01:01:23;98325.8;;;20.05;100
17950;BME280;9100;48.700;9.316;2022-07-10T01:02:22;98374.1;;;20.36;100
17950;BME280;9100;48.700;9.316;2022-07-10T01:03:22;98370.7;;;20.35;100
17950;BME280;9100;48.700;9.316;2022-07-10T01:03:53;98368.3;;;20.33;100
17950;BME280;9100;48.700;9.316;2022-07-10T01:04:22;98369.9;;;20.35;100
17950;BME280;9100;48.700;9.316;2022-07-10T01:05:22;98368.3;;;20.33;100
17950;BME280;9100;48.700;9.316;2022-07-10T01:06:22;98368.5;;;20.32;100
17950;BME280;9100;48.700;9.316;2022-07-10T01:07:22;98371.90000000001;;;20.32;100
17950;BME280;9100;48.700;9.316;2022-07-10T01:08:22;98365.20000000001;;;20.31;100
17950;BME280;9100;48.700;9.316;2022-07-10T01:08:53;98362.8;;;20.3;100
17950;BME280;9100;48.700;9.316;2022-07-10T01:09:22;98368.8;;;20.3;100
17950;BME280;9100;48.700;9.316;2022-07-10T01:10:22;98362;;;20.29;100
17950;BME280;9100;48.700;9.316;2022-07-10T01:11:22;98367.4;;;20.28;100
17950;BME280;9100;48.700;9.316;2022-07-10T01:12:22;98364;;;20.27;100
17950;BME280;9100;48.700;9.316;2022-07-10T01:13:22;98359.79999999999;;;20.26;100
17950;BME280;9100;48.700;9.316;2022-07-10T01:13:53;98362.59999999999;;;20.25;100
17950;BME280;9100;48.700;9.316;2022-07-10T01:14:22;98365.8;;;20.27;100
17950;BME280;9100;48.700;9.316;2022-07-10T01:15:23;98360.6;;;20.27;100
17950;BME280;9100;48.700;9.316;2022-07-10T01:16:22;98359.79999999999;;;20.26;100
17950;BME280;9100;48.700;9.316;2022-07-10T01:17:23;98359.79999999999;;;20.26;100
17950;BME280;9100;48.700;9.316;2022-07-10T01:18:22;98366;;;20.25;100
17950;BME280;9100;48.700;9.316;2022-07-10T01:18:53;98359.40000000001;;;20.23;100
17950;BME280;9100;48.700;9.316;2022-07-10T01:19:22;98359.79999999999;;;20.26;100
17950;BME280;9100;48.700;9.316;2022-07-10T01:20:28;98356.6;;;20.24;100
17950;BME280;9100;48.700;9.316;2022-07-10T01:21:23;98355;;;20.23;100
17950;BME280;9100;48.700;9.316;2022-07-10T01:22:22;98358.90000000001;;;20.21;100
17950;BME280;9100;48.700;9.316;2022-07-10T01:23:23;98360.7;;;20.2;100
17950;BME280;9100;48.700;9.316;2022-07-10T01:23:53;98356.5;;;20.19;100
17950;BME280;9100;48.700;9.316;2022-07-10T01:24:22;98353.09999999999;;;20.19;100
17950;BME280;9100;48.700;9.316;2022-07-10T01:25:22;98355.7;;;20.19;100
17950;BME280;9100;48.700;9.316;2022-07-10T01:26:23;98355.9;;;20.17;100
17950;BME280;9100;48.700;9.316;2022-07-10T01:27:22;98356.2;;;20.16;100
17950;BME280;9100;48.700;9.316;2022-07-10T01:28:22;98357.4;;;20.13;100
17950;BME280;9100;48.700;9.316;2022-07-10T01:28:53;98356.8;;;20.11;100
17950;BME280;9100;48.700;9.316;2022-07-10T01:29:22;98359.2;;;20.13;100
17950;BME280;9100;48.700;9.316;2022-07-10T01:30:22;98365.59999999999;;;20.1;100
17950;BME280;9100;48.700;9.316;2022-07-10T01:31:24;98357.3;;;20.08;100
17950;BME280;9100;48.700;9.316;2022-07-10T01:32:22;98364.5;;;20.06;100
17950;BME280;9100;48.700;9.316;2022-07-10T01:33:22;98361.3;;;20.04;100
17950;BME280;9100;48.700;9.316;2022-07-10T01:33:53;98364.09999999999;;;20.03;100
17950;BME280;9100;48.700;9.316;2022-07-10T01:34:23;98360.5;;;20.04;100
17950;BME280;9100;48.700;9.316;2022-07-10T01:35:22;98356.1;;;20.04;100
17950;BME280;9100;48.700;9.316;2022-07-10T01:36:23;98356.9;;;20.05;100
17950;BME280;9100;48.700;9.316;2022-07-10T01:37:22;98363.09999999999;;;20.04;100
17950;BME280;9100;48.700;9.316;2022-07-10T01:38:22;98357.4;;;20.02;100
17950;BME280;9100;48.700;9.316;2022-07-10T01:38:53;98355.8;;;20.01;100
17950;BME280;9100;48.700;9.316;2022-07-10T01:39:22;98356.6;;;20.01;100
17950;BME280;9100;48.700;9.316;2022-07-10T01:40:22;98356;;;19.99;100
17950;BME280;9100;48.700;9.316;2022-07-10T01:41:23;98354.6;;;19.97;100
17950;BME280;9100;48.700;9.316;2022-07-10T01:42:22;98353.3;;;19.94;100
17950;BME280;9100;48.700;9.316;2022-07-10T01:43:22;98354.3;;;19.93;100
17950;BME280;9100;48.700;9.316;2022-07-10T01:43:53;98352.09999999999;;;19.9;100
17950;BME280;9100;48.700;9.316;2022-07-10T01:44:22;98354.7;;;19.9;100
17950;BME280;9100;48.700;9.316;2022-07-10T01:45:22;98353.09999999999;;;19.89;100
17950;BME280;9100;48.700;9.316;2022-07-10T01:46:22;98353.4;;;19.88;100
17950;BME280;9100;48.700;9.316;2022-07-10T01:47:22;98360.40000000001;;;19.87;100
17950;BME280;9100;48.700;9.316;2022-07-10T01:48:22;98350.40000000001;;;19.84;100
17950;BME280;9100;48.700;9.316;2022-07-10T01:48:53;98353;;;19.84;100
17950;BME280;9100;48.700;9.316;2022-07-10T01:49:23;98348.8;;;19.83;100
17950;BME280;9100;48.700;9.316;2022-07-10T01:50:22;98346.5;;;19.81;100
17950;BME280;9100;48.700;9.316;2022-07-10T01:51:22;98349.3;;;19.8;100
17950;BME280;9100;48.700;9.316;2022-07-10T01:52:22;98342.5;;;19.79;100
17950;BME280;9100;48.700;9.316;2022-07-10T01:53:23;98349.7;;;19.77;100
17950;BME280;9100;48.700;9.316;2022-07-10T01:53:53;98343;;;19.76;100
17950;BME280;9100;48.700;9.316;2022-07-10T01:54:22;98346.3;;;19.76;100
17950;BME280;9100;48.700;9.316;2022-07-10T01:55:22;98341.9;;;19.77;100
17950;BME280;9100;48.700;9.316;2022-07-10T01:56:22;98348.90000000001;;;19.76;100
17950;BME280;9100;48.700;9.316;2022-07-10T01:57:22;98343;;;19.76;100
17950;BME280;9100;48.700;9.316;2022-07-10T01:58:22;98346.6;;;19.75;100
17950;BME280;9100;48.700;9.316;2022-07-10T01:58:53;98345;;;19.74;100
17950;BME280;9100;48.700;9.316;2022-07-10T01:59:22;98339.8;;;19.74;100
17950;BME280;9100;48.700;9.316;2022-07-10T02:00:22;98337.40000000001;;;19.72;100
17950;BME280;9100;48.700;9.316;2022-07-10T02:01:22;98351.4;;;19.71;100
17950;BME280;9100;48.700;9.316;2022-07-10T02:02:22;98351;;;19.68;100
17950;BME280;9100;48.700;9.316;2022-07-10T02:03:23;98356.7;;;19.65;100
17950;BME280;9100;48.700;9.316;2022-07-10T02:03:53;98346.5;;;19.63;100
17950;BME280;9100;48.700;9.316;2022-07-10T02:04:22;98358.5;;;19.64;100
17950;BME280;9100;48.700;9.316;2022-07-10T02:05:22;98350.09999999999;;;19.62;100
17950;BME280;9100;48.700;9.316;2022-07-10T02:06:22;98349.1;;;19.63;100
17950;BME280;9100;48.700;9.316;2022-07-10T02:07:22;98343.6;;;19.6;100
17950;BME280;9100;48.700;9.316;2022-07-10T02:08:22;98351.09999999999;;;19.61;100
17950;BME280;9100;48.700;9.316;2022-07-10T02:08:53;98350.5;;;19.59;100
17950;BME280;9100;48.700;9.316;2022-07-10T02:09:22;98346.40000000001;;;19.58;100
17950;BME280;9100;48.700;9.316;2022-07-10T02:10:22;98350.8;;;19.58;100
17950;BME280;9100;48.700;9.316;2022-07-10T02:11:22;98347.6;;;19.56;100
17950;BME280;9100;48.700;9.316;2022-07-10T02:12:23;98349.40000000001;;;19.55;100
17950;BME280;9100;48.700;9.316;2022-07-10T02:13:22;98349.8;;;19.52;100
17950;BME280;9100;48.700;9.316;2022-07-10T02:13:53;98353.2;;;19.53;100
17950;BME280;9100;48.700;9.316;2022-07-10T02:14:22;98349.8;;;19.52;100
17950;BME280;9100;48.700;9.316;2022-07-10T02:15:23;98348.2;;;19.51;100
17950;BME280;9100;48.700;9.316;2022-07-10T02:16:23;98358.1;;;19.49;100
17950;BME280;9100;48.700;9.316;2022-07-10T02:17:23;98357.7;;;19.46;100
17950;BME280;9100;48.700;9.316;2022-07-10T02:18:22;98351.09999999999;;;19.43;100
17950;BME280;9100;48.700;9.316;2022-07-10T02:18:53;98359.1;;;19.42;100
17950;BME280;9100;48.700;9.316;2022-07-10T02:19:23;98359.7;;;19.44;100
17950;BME280;9100;48.700;9.316;2022-07-10T02:20:22;98350.5;;;19.41;100
17950;BME280;9100;48.700;9.316;2022-07-10T02:21:22;98345.8;;;19.38;100
17950;BME280;9100;48.700;9.316;2022-07-10T02:22:22;98349.40000000001;;;19.37;100
17950;BME280;9100;48.700;9.316;2022-07-10T02:23:23;98348;;;19.34;100
17950;BME280;9100;48.700;9.316;2022-07-10T02:23:53;98347.40000000001;;;19.32;100
17950;BME280;9100;48.700;9.316;2022-07-10T02:24:23;98355.8;;;19.34;100
17950;BME280;9100;48.700;9.316;2022-07-10T02:25:22;98350.8;;;19.33;100
17950;BME280;9100;48.700;9.316;2022-07-10T02:26:23;98345.3;;;19.29;100
17950;BME280;9100;48.700;9.316;2022-07-10T02:27:22;98341.3;;;19.27;100
17950;BME280;9100;48.700;9.316;2022-07-10T02:28:23;98342.5;;;19.24;100
17950;BME280;9100;48.700;9.316;2022-07-10T02:28:53;98343;;;19.21;100
17950;BME280;9100;48.700;9.316;2022-07-10T02:29:22;98343.8;;;19.22;100
17950;BME280;9100;48.700;9.316;2022-07-10T02:30:23;98341.4;;;19.2;100
17950;BME280;9100;48.700;9.316;2022-07-10T02:31:23;98347.6;;;19.19;100
17950;BME280;9100;48.700;9.316;2022-07-10T02:32:22;98343.6;;;19.17;100
17950;BME280;9100;48.700;9.316;2022-07-10T02:33:23;98351.59999999999;;;19.15;100
17950;BME280;9100;48.700;9.316;2022-07-10T02:33:53;98350;;;19.14;100
17950;BME280;9100;48.700;9.316;2022-07-10T02:34:22;98352.59999999999;;;19.14;100
17950;BME280;9100;48.700;9.316;2022-07-10T02:35:22;98350;;;19.14;100
17950;BME280;9100;48.700;9.316;2022-07-10T02:36:22;98352.09999999999;;;19.12;100
17950;BME280;9100;48.700;9.316;2022-07-10T02:37:23;98354.1;;;19.1;100
17950;BME280;9100;48.700;9.316;2022-07-10T02:38:22;98353.5;;;19.08;100
17950;BME280;9100;48.700;9.316;2022-07-10T02:38:53;98351.09999999999;;;19.07;100
17950;BME280;9100;48.700;9.316;2022-07-10T02:39:22;98342.5;;;19.06;100
17950;BME280;9100;48.700;9.316;2022-07-10T02:40:23;98351.4;;;19.05;100
17950;BME280;9100;48.700;9.316;2022-07-10T02:41:22;98355.9;;;19.03;100
17950;BME280;9100;48.700;9.316;2022-07-10T02:42:22;98356.9;;;19.02;100
17950;BME280;9100;48.700;9.316;2022-07-10T02:43:22;98360;;;18.99;100
17950;BME280;9100;48.700;9.316;2022-07-10T02:43:53;98353.8;;;19;100
17950;BME280;9100;48.700;9.316;2022-07-10T02:44:22;98361.6;;;19;100
17950;BME280;9100;48.700;9.316;2022-07-10T02:45:22;98353;;;19;100
17950;BME280;9100;48.700;9.316;2022-07-10T02:46:22;98356.6;;;18.99;100
17950;BME280;9100;48.700;9.316;2022-07-10T02:47:22;98371.40000000001;;;18.98;100
17950;BME280;9100;48.700;9.316;2022-07-10T02:48:22;98364.8;;;18.96;100
17950;BME280;9100;48.700;9.316;2022-07-10T02:48:53;98365;;;18.94;100
17950;BME280;9100;48.700;9.316;2022-07-10T02:49:23;98368.2;;;18.96;100
17950;BME280;9100;48.700;9.316;2022-07-10T02:50:22;98371.8;;;18.95;100
17950;BME280;9100;48.700;9.316;2022-07-10T02:51:22;98374.40000000001;;;18.95;100
17950;BME280;9100;48.700;9.316;2022-07-10T02:52:22;98373;;;18.93;100
17950;BME280;9100;48.700;9.316;2022-07-10T02:53:22;98374.59999999999;;;18.94;100
17950;BME280;9100;48.700;9.316;2022-07-10T02:53:53;98373;;;18.93;100
17950;BME280;9100;48.700;9.316;2022-07-10T02:54:22;98373.8;;;18.93;100
17950;BME280;9100;48.700;9.316;2022-07-10T02:55:22;98373;;;18.93;100
17950;BME280;9100;48.700;9.316;2022-07-10T02:56:22;98372.2;;;18.92;100
17950;BME280;9100;48.700;9.316;2022-07-10T02:57:23;98377.8;;;18.89;100
17950;BME280;9100;48.700;9.316;2022-07-10T02:58:23;98370.5;;;18.86;100
17950;BME280;9100;48.700;9.316;2022-07-10T02:58:53;98371.5;;;18.85;100
17950;BME280;9100;48.700;9.316;2022-07-10T02:59:23;98370.7;;;18.84;100
17950;BME280;9100;48.700;9.316;2022-07-10T03:00:22;98371.90000000001;;;18.82;100
17950;BME280;9100;48.700;9.316;2022-07-10T03:01:22;98378.09999999999;;;18.81;100
17950;BME280;9100;48.700;9.316;2022-07-10T03:02:22;98372.29999999999;;;18.79;100
17950;BME280;9100;48.700;9.316;2022-07-10T03:03:22;98378.5;;;18.78;100
17950;BME280;9100;48.700;9.316;2022-07-10T03:03:53;98374.1;;;18.78;100
17950;BME280;9100;48.700;9.316;2022-07-10T03:04:23;98374.90000000001;;;18.79;100
17950;BME280;9100;48.700;9.316;2022-07-10T03:05:22;98374.3;;;18.77;100
17950;BME280;9100;48.700;9.316;2022-07-10T03:06:22;98367.6;;;18.76;100
17950;BME280;9100;48.700;9.316;2022-07-10T03:07:22;98369.4;;;18.75;100
17950;BME280;9100;48.700;9.316;2022-07-10T03:08:22;98369.4;;;18.75;100
17950;BME280;9100;48.700;9.316;2022-07-10T03:08:53;98365.20000000001;;;18.74;100
17950;BME280;9100;48.700;9.316;2022-07-10T03:09:22;98371.2;;;18.75;100
17950;BME280;9100;48.700;9.316;2022-07-10T03:10:22;98370.4;;;18.74;100
17950;BME280;9100;48.700;9.316;2022-07-10T03:11:22;98370.6;;;18.73;100
17950;BME280;9100;48.700;9.316;2022-07-10T03:12:22;98377.8;;;18.71;100
17950;BME280;9100;48.700;9.316;2022-07-10T03:13:23;98368.2;;;18.71;100
17950;BME280;9100;48.700;9.316;2022-07-10T03:13:53;98370;;;18.71;100
17950;BME280;9100;48.700;9.316;2022-07-10T03:14:22;98367.4;;;18.71;100
17950;BME280;9100;48.700;9.316;2022-07-10T03:15:22;98370;;;18.71;100
17950;BME280;9100;48.700;9.316;2022-07-10T03:16:23;98365.59999999999;;;18.71;100
17950;BME280;9100;48.700;9.316;2022-07-10T03:17:22;98368.2;;;18.71;100
17950;BME280;9100;48.700;9.316;2022-07-10T03:18:23;98372.6;;;18.71;100
17950;BME280;9100;48.700;9.316;2022-07-10T03:18:53;98364;;;18.7;100
17950;BME280;9100;48.700;9.316;2022-07-10T03:19:22;98363.2;;;18.7;100
17950;BME280;9100;48.700;9.316;2022-07-10T03:20:22;98368.7;;;18.68;100
17950;BME280;9100;48.700;9.316;2022-07-10T03:21:23;98369.6;;;18.67;100
17950;BME280;9100;48.700;9.316;2022-07-10T03:22:23;98368.2;;;18.65;100
17950;BME280;9100;48.700;9.316;2022-07-10T03:23:23;98363.5;;;18.62;100
17950;BME280;9100;48.700;9.316;2022-07-10T03:23:53;98365.3;;;18.61;100
17950;BME280;9100;48.700;9.316;2022-07-10T03:24:22;98367.3;;;18.59;100
17950;BME280;9100;48.700;9.316;2022-07-10T03:25:22;98364.9;;;18.58;100
17950;BME280;9100;48.700;9.316;2022-07-10T03:26:23;98362.59999999999;;;18.56;100
17950;BME280;9100;48.700;9.316;2022-07-10T03:27:22;98367.2;;;18.54;100
17950;BME280;9100;48.700;9.316;2022-07-10T03:28:23;98371;;;18.52;100
17950;BME280;9100;48.700;9.316;2022-07-10T03:28:53;98368.5;;;18.5;100
17950;BME280;9100;48.700;9.316;2022-07-10T03:29:22;98372.2;;;18.49;100
17950;BME280;9100;48.700;9.316;2022-07-10T03:30:22;98369;;;18.47;100
17950;BME280;9100;48.700;9.316;2022-07-10T03:31:23;98379.3;;;18.47;100
17950;BME280;9100;48.700;9.316;2022-07-10T03:32:22;98371.8;;;18.46;100
17950;BME280;9100;48.700;9.316;2022-07-10T03:33:22;98379;;;18.43;100
17950;BME280;9100;48.700;9.316;2022-07-10T03:33:53;98379.2;;;18.42;100
17950;BME280;9100;48.700;9.316;2022-07-10T03:34:22;98375.59999999999;;;18.43;100
17950;BME280;9100;48.700;9.316;2022-07-10T03:35:22;98381.8;;;18.42;100
17950;BME280;9100;48.700;9.316;2022-07-10T03:36:22;98329.8;;;18.06;100
17950;BME280;9100;48.700;9.316;2022-07-10T03:37:22;98376.2;;;18.38;100
17950;BME280;9100;48.700;9.316;2022-07-10T03:38:22;98374.59999999999;;;18.37;100
17950;BME280;9100;48.700;9.316;2022-07-10T03:38:53;98379;;;18.37;100
17950;BME280;9100;48.700;9.316;2022-07-10T03:39:22;98372;;;18.37;100
17950;BME280;9100;48.700;9.316;2022-07-10T03:40:22;98373;;;18.36;100
17950;BME280;9100;48.700;9.316;2022-07-10T03:41:22;98367.1;;;18.36;100
17950;BME280;9100;48.700;9.316;2022-07-10T03:42:22;98367.1;;;18.36;100
17950;BME280;9100;48.700;9.316;2022-07-10T03:43:22;98368.3;;;18.33;100
17950;BME280;9100;48.700;9.316;2022-07-10T03:43:53;98371.3;;;18.3;100
17950;BME280;9100;48.700;9.316;2022-07-10T03:44:22;98368.7;;;18.3;100
17950;BME280;9100;48.700;9.316;2022-07-10T03:45:23;98289.8;;;17.77;100
17950;BME280;9100;48.700;9.316;2022-07-10T03:46:22;98369.5;;;18.24;100
17950;BME280;9100;48.700;9.316;2022-07-10T03:47:22;98372.40000000001;;;18.23;100
17950;BME280;9100;48.700;9.316;2022-07-10T03:48:23;98358;;;18.2;100
17950;BME280;9100;48.700;9.316;2022-07-10T03:48:53;98363.2;;;18.2;100
17950;BME280;9100;48.700;9.316;2022-07-10T03:49:23;98354.1;;;18.18;100
17950;BME280;9100;48.700;9.316;2022-07-10T03:50:22;98358.4;;;18.17;100
17950;BME280;9100;48.700;9.316;2022-07-10T03:51:23;98360.5;;;18.15;100
17950;BME280;9100;48.700;9.316;2022-07-10T03:52:22;98354.7;;;18.13;100
17950;BME280;9100;48.700;9.316;2022-07-10T03:53:22;98364.5;;;18.11;100
17950;BME280;9100;48.700;9.316;2022-07-10T03:53:53;98346.2;;;18.06;100
17950;BME280;9100;48.700;9.316;2022-07-10T03:54:22;98354.1;;;18.11;100
17950;BME280;9100;48.700;9.316;2022-07-10T03:55:22;98354.1;;;18.11;100
17950;BME280;9100;48.700;9.316;2022-07-10T03:56:22;98356.1;;;18.09;100
17950;BME280;9100;48.700;9.316;2022-07-10T03:57:22;98351.9;;;18.08;100
17950;BME280;9100;48.700;9.316;2022-07-10T03:58:23;98349.7;;;18.05;100
17950;BME280;9100;48.700;9.316;2022-07-10T03:58:53;98357.5;;;18.05;100
17950;BME280;9100;48.700;9.316;2022-07-10T03:59:23;98358.3;;;18.06;100
17950;BME280;9100;48.700;9.316;2022-07-10T04:00:23;98356.5;;;18.06;100
17950;BME280;9100;48.700;9.316;2022-07-10T04:01:22;98358.90000000001;;;18.08;100
17950;BME280;9100;48.700;9.316;2022-07-10T04:02:22;98357.3;;;18.07;100
17950;BME280;9100;48.700;9.316;2022-07-10T04:03:22;98353.9;;;18.06;100
17950;BME280;9100;48.700;9.316;2022-07-10T04:03:53;98353.09999999999;;;18.06;100
17950;BME280;9100;48.700;9.316;2022-07-10T04:04:22;98356.3;;;18.08;100
17950;BME280;9100;48.700;9.316;2022-07-10T04:05:22;98353.9;;;18.06;100
17950;BME280;9100;48.700;9.316;2022-07-10T04:06:22;98350.5;;;18.06;100
17950;BME280;9100;48.700;9.316;2022-07-10T04:07:22;98352.59999999999;;;18.04;100
17950;BME280;9100;48.700;9.316;2022-07-10T04:08:23;98355.2;;;18.04;100
17950;BME280;9100;48.700;9.316;2022-07-10T04:08:53;98351.8;;;18.03;100
17950;BME280;9100;48.700;9.316;2022-07-10T04:09:22;98351.8;;;18.03;100
17950;BME280;9100;48.700;9.316;2022-07-10T04:10:22;98351.8;;;18.03;100
17950;BME280;9100;48.700;9.316;2022-07-10T04:11:23;98354.4;;;18.03;100
17950;BME280;9100;48.700;9.316;2022-07-10T04:12:22;98356.4;;;18.01;100
17950;BME280;9100;48.700;9.316;2022-07-10T04:13:23;98353.2;;;17.99;100
17950;BME280;9100;48.700;9.316;2022-07-10T04:13:53;98354;;;18;100
17950;BME280;9100;48.700;9.316;2022-07-10T04:14:22;98356.6;;;18;100
17950;BME280;9100;48.700;9.316;2022-07-10T04:15:23;98354;;;18;100
17950;BME280;9100;48.700;9.316;2022-07-10T04:16:23;98351.59999999999;;;17.98;100
17950;BME280;9100;48.700;9.316;2022-07-10T04:17:22;98351;;;17.96;100
17950;BME280;9100;48.700;9.316;2022-07-10T04:18:23;98355.6;;;17.94;100
17950;BME280;9100;48.700;9.316;2022-07-10T04:18:53;98353;;;17.94;100
17950;BME280;9100;48.700;9.316;2022-07-10T04:19:22;98358.2;;;17.94;100
17950;BME280;9100;48.700;9.316;2022-07-10T04:20:23;98351.4;;;17.93;100
17950;BME280;9100;48.700;9.316;2022-07-10T04:21:23;98353.2;;;17.92;100
17950;BME280;9100;48.700;9.316;2022-07-10T04:22:22;98356.2;;;17.89;100
17950;BME280;9100;48.700;9.316;2022-07-10T04:23:23;98354.8;;;17.87;100
17950;BME280;9100;48.700;9.316;2022-07-10T04:23:53;98346.3;;;17.86;100
17950;BME280;9100;48.700;9.316;2022-07-10T04:24:22;98345.5;;;17.86;100
17950;BME280;9100;48.700;9.316;2022-07-10T04:25:23;98344.7;;;17.85;100
17950;BME280;9100;48.700;9.316;2022-07-10T04:26:22;98349.1;;;17.85;100
17950;BME280;9100;48.700;9.316;2022-07-10T04:27:22;98356.9;;;17.85;100
17950;BME280;9100;48.700;9.316;2022-07-10T04:28:22;98357.8;;;17.84;100
17950;BME280;9100;48.700;9.316;2022-07-10T04:28:53;98348.5;;;17.83;100
17950;BME280;9100;48.700;9.316;2022-07-10T04:29:22;98345.9;;;17.83;100
17950;BME280;9100;48.700;9.316;2022-07-10T04:30:22;98351.3;;;17.88;100
17950;BME280;9100;48.700;9.316;2022-07-10T04:31:22;98347.79999999999;;;17.94;100
17950;BME280;9100;48.700;9.316;2022-07-10T04:32:22;98347.79999999999;;;18.01;100
17950;BME280;9100;48.700;9.316;2022-07-10T04:33:23;98357.7;;;18.1;100
17950;BME280;9100;48.700;9.316;2022-07-10T04:33:53;98357.3;;;18.13;100